Time;durP1;ratioP1;P1;durP2;ratioP2;P2;SDS_P1;SDS_P2;PMS_P1;PMS_P2;Temp;Humidity;BMP_temperature;BMP_pressure;BME280_temperature;BME280_humidity;BME280_pressure;Samples;Min_cycle;Max_cycle;Signal;HPM_P1;HPM_P2
2023/06/02 00:01:20;;;;;;;10.30;4.43;;;14.00;99.90;;;;;;5096226;28;20453;-69
2023/06/02 00:03:47;;;;;;;9.90;3.83;;;13.90;99.90;;;;;;5097273;28;20516;-69
2023/06/02 00:06:15;;;;;;;13.13;3.87;;;13.90;99.90;;;;;;5097460;28;20457;-69
2023/06/02 00:08:43;;;;;;;7.30;4.07;;;13.80;99.90;;;;;;5097513;28;20480;-69
2023/06/02 00:11:11;;;;;;;13.70;4.03;;;13.80;99.90;;;;;;5097297;28;20530;-69
2023/06/02 00:13:38;;;;;;;11.10;4.03;;;13.70;99.90;;;;;;5097506;28;20530;-69
2023/06/02 00:16:08;;;;;;;12.90;3.87;;;13.70;99.90;;;;;;5097101;28;20514;-69
2023/06/02 00:18:37;;;;;;;8.83;3.47;;;13.60;99.90;;;;;;5097339;28;20571;-69
2023/06/02 00:21:05;;;;;;;7.83;4.40;;;13.60;99.90;;;;;;5096981;28;20492;-69
2023/06/02 00:23:32;;;;;;;12.73;3.90;;;13.60;99.90;;;;;;5097146;28;20489;-69
2023/06/02 00:26:00;;;;;;;13.13;5.30;;;13.60;99.90;;;;;;5096980;28;20921;-69
2023/06/02 00:28:27;;;;;;;15.03;4.57;;;13.50;99.90;;;;;;5097126;28;20467;-69
2023/06/02 00:30:54;;;;;;;15.60;4.13;;;13.40;1.00;;;;;;5097149;28;20465;-69
2023/06/02 00:33:22;;;;;;;7.43;3.70;;;13.40;1.00;;;;;;5096935;28;20485;-69
2023/06/02 00:35:49;;;;;;;8.80;4.40;;;13.40;1.00;;;;;;5097196;28;20462;-69
2023/06/02 00:38:16;;;;;;;15.63;3.53;;;13.30;1.00;;;;;;5096643;28;20564;-69
2023/06/02 00:40:43;;;;;;;13.37;4.77;;;13.30;1.00;;;;;;5096810;28;20494;-69
2023/06/02 00:43:10;;;;;;;17.63;5.40;;;13.20;1.00;;;;;;5097181;28;20557;-69
2023/06/02 00:45:37;;;;;;;11.67;4.10;;;13.20;1.00;;;;;;5096936;28;20841;-69
2023/06/02 00:48:04;;;;;;;12.37;3.90;;;13.20;1.00;;;;;;5096813;28;20457;-69
2023/06/02 00:50:33;;;;;;;13.37;4.53;;;13.10;1.00;;;;;;5096805;28;20484;-69
2023/06/02 00:53:01;;;;;;;12.40;5.00;;;13.10;1.00;;;;;;5096777;28;20468;-69
2023/06/02 00:55:29;;;;;;;9.90;4.30;;;13.00;1.00;;;;;;5096488;28;20837;-69
2023/06/02 00:57:58;;;;;;;13.37;4.40;;;13.00;1.00;;;;;;5096347;28;20496;-69
2023/06/02 01:00:26;;;;;;;9.87;4.10;;;13.00;1.00;;;;;;5096242;28;20457;-69
2023/06/02 01:02:53;;;;;;;13.30;4.77;;;13.00;1.00;;;;;;5096493;28;20515;-69
2023/06/02 01:05:20;;;;;;;20.70;4.30;;;13.00;1.00;;;;;;5096361;28;20778;-69
2023/06/02 01:07:58;;;;;;;15.10;4.10;;;13.00;1.00;;;;;;5096161;28;20540;-69
2023/06/02 01:10:25;;;;;;;17.47;6.07;;;12.90;1.00;;;;;;5096614;28;20452;-69
2023/06/02 01:12:52;;;;;;;11.20;3.93;;;12.90;1.00;;;;;;5095492;28;20530;-69
2023/06/02 01:15:19;;;;;;;12.53;4.63;;;12.90;9.90;;;;;;5095794;28;20882;-69
2023/06/02 01:17:46;;;;;;;16.67;5.40;;;12.80;99.90;;;;;;5096124;28;20457;-69
2023/06/02 01:20:15;;;;;;;14.90;4.47;;;12.70;63.30;;;;;;5096521;28;20534;-69
2023/06/02 01:22:48;;;;;;;11.93;4.87;;;12.70;99.90;;;;;;5096110;28;20480;-69
2023/06/02 01:25:21;;;;;;;13.60;4.50;;;12.70;99.90;;;;;;5096237;28;20434;-69
2023/06/02 01:27:48;;;;;;;10.83;4.83;;;12.70;99.90;;;;;;5095952;28;20522;-69
2023/06/02 01:30:16;;;;;;;17.47;4.10;;;12.60;99.90;;;;;;5095754;28;21005;-69
2023/06/02 01:32:50;;;;;;;12.63;4.20;;;12.50;99.90;;;;;;5096031;28;20476;-69
2023/06/02 01:35:20;;;;;;;20.13;5.73;;;12.50;1.00;;;;;;5095637;28;20442;-68
2023/06/02 01:37:54;;;;;;;11.53;4.30;;;12.40;1.00;;;;;;5095451;28;20832;-69
2023/06/02 01:40:24;;;;;;;17.67;4.67;;;12.30;1.00;;;;;;5095791;28;20456;-69
2023/06/02 01:42:53;;;;;;;11.53;4.03;;;12.20;99.90;;;;;;5095726;28;20480;-69
2023/06/02 01:45:21;;;;;;;10.90;4.73;;;12.10;99.90;;;;;;5095408;28;20488;-68
2023/06/02 01:47:48;;;;;;;15.43;5.00;;;12.10;1.00;;;;;;5095449;28;20467;-68
2023/06/02 01:50:15;;;;;;;16.57;5.17;;;12.00;1.00;;;;;;5095840;28;20453;-68
2023/06/02 01:52:42;;;;;;;10.63;4.87;;;11.90;1.00;;;;;;5095056;28;20449;-68
2023/06/02 01:55:09;;;;;;;10.40;4.63;;;11.90;1.00;;;;;;5095189;28;20453;-69
2023/06/02 01:57:38;;;;;;;10.17;4.43;;;11.90;1.00;;;;;;5095348;28;20468;-68
2023/06/02 02:00:05;;;;;;;14.27;4.57;;;11.90;1.00;;;;;;5095552;28;20802;-68
2023/06/02 02:02:32;;;;;;;14.20;4.47;;;11.90;54.10;;;;;;5095510;28;20514;-69
2023/06/02 02:04:59;;;;;;;13.47;5.73;;;11.80;99.90;;;;;;5095011;28;20522;-68
2023/06/02 02:07:28;;;;;;;17.07;4.80;;;11.80;99.90;;;;;;5095042;28;20493;-69
2023/06/02 02:09:56;;;;;;;14.83;4.50;;;11.80;1.00;;;;;;5095454;28;20813;-70
2023/06/02 02:12:23;;;;;;;12.53;5.67;;;11.70;1.00;;;;;;5095104;28;20518;-68
2023/06/02 02:14:56;;;;;;;17.33;5.03;;;11.60;1.00;;;;;;5095306;28;20537;-68
2023/06/02 02:17:25;;;;;;;18.30;5.77;;;11.60;1.00;;;;;;5094962;28;20471;-69
2023/06/02 02:19:55;;;;;;;11.67;4.77;;;11.50;82.80;;;;;;5095080;28;20484;-69
2023/06/02 02:22:22;;;;;;;9.60;4.13;;;11.50;99.90;;;;;;5094546;28;20541;-69
2023/06/02 02:24:49;;;;;;;21.23;5.20;;;11.40;99.90;;;;;;5095117;28;20457;-69
2023/06/02 02:27:16;;;;;;;10.73;4.80;;;11.40;99.90;;;;;;5094955;28;20453;-69
2023/06/02 02:29:44;;;;;;;11.50;4.70;;;11.40;37.50;;;;;;5094621;28;20503;-69
2023/06/02 02:32:12;;;;;;;14.43;4.53;;;11.30;1.00;;;;;;5094619;28;20468;-69
2023/06/02 02:34:39;;;;;;;12.93;4.50;;;11.30;1.00;;;;;;5094338;28;20552;-69
2023/06/02 02:37:09;;;;;;;7.13;4.30;;;11.30;1.00;;;;;;5094700;28;20481;-68
2023/06/02 02:39:36;;;;;;;11.40;4.70;;;11.20;99.90;;;;;;5094380;28;20518;-68
2023/06/02 02:42:03;;;;;;;11.20;4.20;;;11.10;1.00;;;;;;5094700;28;20544;-68
2023/06/02 02:44:30;;;;;;;10.80;4.60;;;11.10;1.00;;;;;;5094382;28;20572;-68
2023/06/02 02:46:58;;;;;;;15.17;4.90;;;11.20;99.90;;;;;;5094671;28;20786;-69
2023/06/02 02:49:27;;;;;;;11.73;4.73;;;11.20;1.00;;;;;;5094671;28;20534;-70
2023/06/02 02:51:54;;;;;;;11.47;5.60;;;11.10;1.00;;;;;;5094778;28;20458;-68
2023/06/02 02:54:21;;;;;;;12.83;5.30;;;10.90;1.00;;;;;;5094664;28;20560;-69
2023/06/02 02:56:48;;;;;;;19.40;5.43;;;10.80;1.00;;;;;;5094521;28;20553;-69
2023/06/02 02:59:15;;;;;;;9.70;4.33;;;10.70;1.00;;;;;;5094441;28;20943;-70
2023/06/02 03:01:43;;;;;;;13.93;5.00;;;10.80;1.00;;;;;;5094146;28;20994;-68
2023/06/02 03:04:11;;;;;;;10.30;5.50;;;10.70;1.00;;;;;;5094386;28;20485;-68
2023/06/02 03:06:43;;;;;;;11.77;4.30;;;10.80;1.00;;;;;;5094777;28;20787;-68
2023/06/02 03:09:10;;;;;;;20.63;6.13;;;10.80;1.00;;;;;;5094354;28;20842;-68
2023/06/02 03:11:37;;;;;;;9.53;4.60;;;10.80;99.90;;;;;;5094313;28;20774;-68
2023/06/02 03:14:04;;;;;;;12.30;4.80;;;10.80;99.90;;;;;;5094450;28;20988;-69
2023/06/02 03:16:31;;;;;;;15.97;4.80;;;10.80;99.90;;;;;;5094217;28;20576;-69
2023/06/02 03:18:58;;;;;;;14.27;4.73;;;10.90;99.90;;;;;;5094606;28;20484;-68
2023/06/02 03:21:26;;;;;;;14.40;4.20;;;10.90;1.00;;;;;;5094080;28;20453;-69
2023/06/02 03:23:55;;;;;;;15.90;5.20;;;10.80;9.00;;;;;;5093809;28;20950;-68
2023/06/02 03:26:25;;;;;;;16.03;4.87;;;10.80;99.90;;;;;;5093909;28;20544;-68
2023/06/02 03:28:52;;;;;;;8.47;4.70;;;10.80;99.90;;;;;;5093941;28;20800;-69
2023/06/02 03:31:19;;;;;;;10.93;4.77;;;10.80;99.90;;;;;;5094239;28;20470;-68
2023/06/02 03:33:47;;;;;;;9.20;4.40;;;11.00;97.10;;;;;;5094187;28;20785;-68
2023/06/02 03:36:17;;;;;;;16.20;4.97;;;11.00;1.00;;;;;;5096761;28;20521;-68
2023/06/02 03:38:45;;;;;;;15.53;5.70;;;11.10;99.90;;;;;;5098318;28;20441;-68
2023/06/02 03:41:13;;;;;;;12.67;4.33;;;11.10;1.00;;;;;;5098033;28;20821;-69
2023/06/02 03:43:40;;;;;;;14.70;5.57;;;11.10;1.00;;;;;;5097724;28;20579;-68
2023/06/02 03:46:07;;;;;;;15.20;5.10;;;11.10;99.90;;;;;;5097775;28;20514;-68
2023/06/02 03:48:34;;;;;;;18.73;5.00;;;11.10;99.90;;;;;;5098109;28;20453;-68
2023/06/02 03:51:01;;;;;;;13.73;5.93;;;11.20;1.00;;;;;;5098361;28;20457;-69
2023/06/02 03:53:28;;;;;;;14.17;5.50;;;11.20;99.90;;;;;;5097627;28;20553;-68
2023/06/02 03:55:54;;;;;;;12.07;4.73;;;11.20;1.00;;;;;;5097759;28;20456;-69
2023/06/02 03:58:23;;;;;;;15.60;5.47;;;11.30;99.90;;;;;;5097903;28;20457;-69
2023/06/02 04:00:50;;;;;;;17.20;4.97;;;11.30;99.90;;;;;;5097843;28;20710;-68
2023/06/02 04:03:17;;;;;;;12.00;5.70;;;11.30;99.90;;;;;;5097723;28;20477;-68
2023/06/02 04:05:44;;;;;;;12.83;4.50;;;11.30;99.90;;;;;;5097834;28;20528;-68
2023/06/02 04:08:14;;;;;;;12.47;5.43;;;11.40;1.00;;;;;;5097946;28;20460;-68
2023/06/02 04:10:41;;;;;;;17.27;4.87;;;11.30;99.90;;;;;;5097668;28;20471;-68
2023/06/02 04:13:07;;;;;;;21.43;5.70;;;11.30;1.00;;;;;;5097367;28;20453;-68
2023/06/02 04:15:36;;;;;;;16.63;5.17;;;11.20;99.90;;;;;;5097332;28;20475;-68
2023/06/02 04:18:05;;;;;;;9.00;4.53;;;11.20;1.00;;;;;;5097216;28;20461;-67
2023/06/02 04:20:32;;;;;;;12.13;5.80;;;11.20;1.00;;;;;;5097301;28;20453;-69
2023/06/02 04:22:58;;;;;;;17.00;4.87;;;11.20;1.00;;;;;;5097331;28;20453;-69
2023/06/02 04:25:25;;;;;;;12.17;4.83;;;11.30;99.90;;;;;;5097482;28;20473;-69
2023/06/02 04:27:52;;;;;;;15.27;5.03;;;11.30;99.90;;;;;;5097184;28;20453;-69
2023/06/02 04:30:19;;;;;;;12.53;5.40;;;11.40;1.00;;;;;;5097398;28;20453;-69
2023/06/02 04:32:49;;;;;;;19.00;4.97;;;11.50;99.90;;;;;;5097194;28;20536;-69
2023/06/02 04:35:16;;;;;;;18.07;5.10;;;11.60;99.90;;;;;;5097231;28;20454;-69
2023/06/02 04:37:46;;;;;;;15.53;5.33;;;11.60;99.90;;;;;;5096863;28;20484;-69
2023/06/02 04:40:14;;;;;;;15.73;5.47;;;11.60;99.90;;;;;;5097164;28;20544;-69
2023/06/02 04:42:41;;;;;;;13.20;4.20;;;11.60;92.80;;;;;;5097160;28;20557;-69
2023/06/02 04:45:12;;;;;;;10.40;4.13;;;11.60;1.00;;;;;;5097016;28;20568;-69
2023/06/02 04:47:39;;;;;;;18.10;4.73;;;11.60;99.90;;;;;;5096108;28;20452;-69
2023/06/02 04:50:09;;;;;;;12.57;5.77;;;11.60;1.00;;;;;;5097084;28;20544;-69
2023/06/02 04:52:38;;;;;;;14.97;5.17;;;11.70;99.90;;;;;;5097043;28;20548;-69
2023/06/02 04:55:06;;;;;;;17.83;5.87;;;11.60;1.00;;;;;;5096527;28;20548;-69
2023/06/02 04:57:32;;;;;;;15.83;5.37;;;11.50;1.00;;;;;;5096667;28;20852;-69
2023/06/02 04:59:59;;;;;;;13.20;4.90;;;11.60;99.90;;;;;;5096668;28;20847;-69
2023/06/02 05:02:26;;;;;;;11.60;5.13;;;11.60;99.90;;;;;;5096599;28;20940;-69
2023/06/02 05:04:53;;;;;;;18.00;5.77;;;11.60;1.00;;;;;;5096295;28;20481;-69
2023/06/02 05:07:21;;;;;;;16.13;5.20;;;11.70;1.00;;;;;;5096584;28;20791;-69
2023/06/02 05:09:48;;;;;;;13.00;5.67;;;11.70;99.90;;;;;;5096524;28;20485;-69
2023/06/02 05:12:16;;;;;;;11.30;5.00;;;11.80;99.90;;;;;;5096346;28;20483;-69
2023/06/02 05:14:42;;;;;;;14.67;5.27;;;11.90;99.90;;;;;;5095934;28;20967;-69
2023/06/02 05:17:09;;;;;;;11.47;5.03;;;12.00;99.90;;;;;;5096226;28;20766;-69
2023/06/02 05:19:36;;;;;;;16.90;6.27;;;12.00;99.90;;;;;;5096259;28;20504;-69
2023/06/02 05:22:04;;;;;;;11.50;5.20;;;12.00;1.00;;;;;;5096732;28;20453;-69
2023/06/02 05:24:32;;;;;;;14.73;5.20;;;12.00;1.00;;;;;;5096268;28;20473;-69
2023/06/02 05:26:59;;;;;;;10.27;4.83;;;12.10;1.00;;;;;;5095833;28;20878;-69
2023/06/02 05:29:26;;;;;;;12.73;4.97;;;12.10;1.00;;;;;;5095727;28;20457;-69
2023/06/02 05:31:53;;;;;;;15.20;6.60;;;12.20;60.50;;;;;;5096190;28;20532;-69
2023/06/02 05:34:19;;;;;;;15.90;6.30;;;12.30;1.00;;;;;;5095633;28;20465;-69
2023/06/02 05:36:46;;;;;;;10.00;5.07;;;12.40;99.90;;;;;;5095657;28;20496;-69
2023/06/02 05:39:13;;;;;;;13.70;5.17;;;12.40;99.90;;;;;;5096368;28;20459;-69
2023/06/02 05:41:41;;;;;;;20.97;5.00;;;12.40;99.90;;;;;;5096051;28;20453;-69
2023/06/02 05:44:08;;;;;;;12.70;5.73;;;12.50;99.90;;;;;;5095680;28;20487;-69
2023/06/02 05:46:35;;;;;;;15.40;5.20;;;12.50;99.90;;;;;;5095723;28;20453;-69
2023/06/02 05:49:02;;;;;;;14.83;5.57;;;12.50;99.90;;;;;;5095817;28;20914;-70
2023/06/02 05:51:29;;;;;;;12.27;4.60;;;12.50;99.90;;;;;;5095584;28;20488;-69
2023/06/02 05:53:55;;;;;;;14.83;4.63;;;12.50;99.90;;;;;;5095657;28;20518;-69
2023/06/02 05:56:22;;;;;;;14.47;5.13;;;12.60;99.90;;;;;;5095597;28;20453;-69
2023/06/02 05:58:50;;;;;;;20.60;5.80;;;12.60;99.90;;;;;;5095135;28;20536;-69
2023/06/02 06:01:17;;;;;;;13.13;5.20;;;12.70;99.90;;;;;;5094974;28;20459;-69
2023/06/02 06:03:44;;;;;;;16.73;4.60;;;12.70;99.90;;;;;;5095177;28;20544;-69
2023/06/02 06:06:11;;;;;;;18.70;7.20;;;12.60;99.90;;;;;;5095340;28;20453;-70
2023/06/02 06:08:38;;;;;;;17.90;5.30;;;12.70;99.90;;;;;;5095204;28;20457;-69
2023/06/02 06:11:05;;;;;;;15.00;5.73;;;12.70;99.90;;;;;;5095267;28;20565;-69
2023/06/02 06:13:32;;;;;;;27.27;6.50;;;12.70;99.90;;;;;;5095201;28;20461;-69
2023/06/02 06:16:00;;;;;;;12.93;5.13;;;12.80;99.90;;;;;;5094768;28;20544;-69
2023/06/02 06:18:27;;;;;;;12.43;5.23;;;12.80;99.90;;;;;;5094926;28;20540;-69
2023/06/02 06:20:54;;;;;;;15.40;5.40;;;12.80;99.90;;;;;;5094846;28;20467;-70
2023/06/02 06:23:20;;;;;;;22.07;5.50;;;12.80;99.90;;;;;;5094745;28;20548;-68
2023/06/02 06:25:47;;;;;;;16.20;6.57;;;12.80;99.90;;;;;;5094888;28;20481;-69
2023/06/02 06:28:14;;;;;;;16.37;5.30;;;12.80;99.90;;;;;;5094547;28;20564;-68
2023/06/02 06:30:41;;;;;;;18.50;5.67;;;12.90;99.90;;;;;;5094595;28;20485;-70
2023/06/02 06:33:10;;;;;;;23.87;6.73;;;12.90;99.90;;;;;;5095095;28;20453;-69
2023/06/02 06:35:36;;;;;;;20.57;5.73;;;12.90;99.90;;;;;;5094778;28;20532;-70
2023/06/02 06:38:04;;;;;;;13.87;6.23;;;12.90;99.90;;;;;;5094381;28;20473;-69
2023/06/02 06:40:31;;;;;;;14.13;6.00;;;13.00;99.90;;;;;;5094742;28;20549;-70
2023/06/02 06:42:58;;;;;;;16.63;6.07;;;13.00;99.90;;;;;;5094677;28;20475;-70
2023/06/02 06:45:25;;;;;;;12.77;5.03;;;13.10;99.90;;;;;;5094384;28;20818;-70
2023/06/02 06:47:52;;;;;;;21.47;7.30;;;13.20;99.90;;;;;;5094374;28;21010;-68
2023/06/02 06:50:20;;;;;;;15.40;5.07;;;13.20;99.90;;;;;;5094481;28;20552;-69
2023/06/02 06:52:48;;;;;;;23.33;7.60;;;13.30;99.90;;;;;;5094622;28;20454;-69
2023/06/02 06:55:15;;;;;;;16.43;5.97;;;13.30;99.90;;;;;;5094417;28;20450;-69
2023/06/02 06:57:42;;;;;;;16.20;7.07;;;13.50;99.90;;;;;;5094328;28;20558;-68
2023/06/02 07:00:10;;;;;;;17.87;5.70;;;13.60;99.90;;;;;;5094630;28;20553;-68
2023/06/02 07:02:37;;;;;;;16.90;5.97;;;13.70;99.90;;;;;;5094522;28;20489;-69
2023/06/02 07:05:04;;;;;;;12.00;5.47;;;13.80;99.90;;;;;;5094060;28;20564;-69
2023/06/02 07:07:32;;;;;;;20.50;6.57;;;13.90;99.90;;;;;;5094221;28;20478;-69
2023/06/02 07:09:59;;;;;;;12.93;7.10;;;14.00;99.90;;;;;;5093396;28;20457;-69
2023/06/02 07:12:29;;;;;;;10.27;6.60;;;14.10;99.90;;;;;;5093857;28;20465;-69
2023/06/02 07:14:56;;;;;;;16.67;7.50;;;14.20;99.90;;;;;;5094117;28;20480;-69
2023/06/02 07:17:23;;;;;;;13.83;6.87;;;14.40;99.90;;;;;;5094138;28;20479;-69
2023/06/02 07:19:50;;;;;;;23.27;7.00;;;14.50;99.90;;;;;;5094138;28;20532;-69
2023/06/02 07:22:17;;;;;;;17.47;7.17;;;14.60;99.90;;;;;;5093835;28;20496;-69
2023/06/02 07:24:45;;;;;;;18.40;7.13;;;14.60;99.90;;;;;;5093771;28;20491;-69
2023/06/02 07:27:13;;;;;;;13.60;6.70;;;14.70;99.90;;;;;;5093689;28;20535;-70
2023/06/02 07:29:40;;;;;;;21.30;6.57;;;14.80;99.90;;;;;;5093961;28;20464;-70
2023/06/02 07:32:08;;;;;;;18.57;6.40;;;15.00;99.90;;;;;;5093819;28;20936;-70
2023/06/02 07:34:35;;;;;;;10.23;6.60;;;15.00;99.90;;;;;;5094055;28;20457;-69
2023/06/02 07:37:02;;;;;;;18.90;7.40;;;15.00;99.90;;;;;;5093845;28;20915;-69
2023/06/02 07:39:30;;;;;;;17.13;8.87;;;15.00;99.90;;;;;;5093726;28;20587;-69
2023/06/02 07:41:59;;;;;;;10.87;6.13;;;15.00;99.90;;;;;;5093693;28;20461;-69
2023/06/02 07:44:25;;;;;;;11.23;6.07;;;15.00;99.90;;;;;;5093616;28;20580;-69
2023/06/02 07:46:52;;;;;;;14.20;5.20;;;15.00;99.90;;;;;;5093721;28;20857;-69
2023/06/02 07:49:19;;;;;;;15.40;6.23;;;14.90;99.90;;;;;;5093760;28;20539;-69
2023/06/02 07:51:46;;;;;;;14.03;5.93;;;15.00;99.90;;;;;;5093608;28;20457;-69
2023/06/02 07:54:13;;;;;;;13.17;6.50;;;15.00;99.90;;;;;;5093784;28;20921;-70
2023/06/02 07:56:40;;;;;;;12.27;6.17;;;15.10;99.90;;;;;;5093666;28;20452;-69
2023/06/02 07:59:11;;;;;;;9.30;5.20;;;15.20;99.90;;;;;;5093647;28;20475;-69
2023/06/02 08:01:38;;;;;;;8.00;4.53;;;15.30;99.90;;;;;;5093565;28;20882;-69
2023/06/02 08:04:05;;;;;;;14.60;5.00;;;15.40;99.90;;;;;;5093323;28;20949;-69
2023/06/02 08:06:32;;;;;;;10.87;4.30;;;15.40;99.90;;;;;;5093198;28;20565;-69
2023/06/02 08:08:59;;;;;;;8.20;5.23;;;15.40;99.90;;;;;;5093177;28;20564;-69
2023/06/02 08:11:26;;;;;;;12.00;6.37;;;15.40;99.90;;;;;;5093537;28;20540;-70
2023/06/02 08:13:53;;;;;;;11.10;4.73;;;15.40;99.90;;;;;;5093681;28;20871;-69
2023/06/02 08:16:21;;;;;;;7.90;4.30;;;15.40;99.90;;;;;;5093627;28;20450;-69
2023/06/02 08:18:48;;;;;;;8.50;4.57;;;15.50;99.90;;;;;;5093768;28;20469;-69
2023/06/02 08:21:15;;;;;;;10.60;3.93;;;15.50;99.90;;;;;;5094564;28;20543;-69
2023/06/02 08:23:42;;;;;;;8.10;4.30;;;15.40;99.90;;;;;;5097249;28;20466;-69
2023/06/02 08:26:09;;;;;;;10.00;4.87;;;15.50;99.90;;;;;;5096918;28;20515;-69
2023/06/02 08:28:37;;;;;;;6.13;3.70;;;15.50;99.90;;;;;;5097008;28;20540;-70
2023/06/02 08:31:04;;;;;;;7.07;4.97;;;15.50;99.90;;;;;;5097284;28;20457;-69
2023/06/02 08:33:33;;;;;;;6.10;4.40;;;15.60;99.90;;;;;;5097015;28;20510;-70
2023/06/02 08:36:02;;;;;;;5.13;3.10;;;15.70;99.90;;;;;;5096281;28;20905;-69
2023/06/02 08:38:37;;;;;;;6.63;3.40;;;15.70;99.90;;;;;;5097029;28;20541;-69
2023/06/02 08:41:10;;;;;;;6.97;3.37;;;15.80;99.90;;;;;;5096444;28;20511;-70
2023/06/02 08:43:37;;;;;;;9.13;4.93;;;15.80;99.90;;;;;;5096904;28;20897;-68
2023/06/02 08:46:04;;;;;;;8.93;5.97;;;15.90;99.90;;;;;;5096855;28;20495;-69
2023/06/02 08:48:36;;;;;;;6.43;3.50;;;16.00;99.90;;;;;;5096845;28;20457;-70
2023/06/02 08:51:04;;;;;;;5.47;3.20;;;16.10;99.90;;;;;;5096475;28;20446;-70
2023/06/02 08:53:33;;;;;;;4.70;3.00;;;16.20;99.90;;;;;;5096666;28;20540;-70
2023/06/02 08:56:00;;;;;;;6.37;3.17;;;16.20;99.90;;;;;;5096318;28;20906;-69
2023/06/02 08:58:30;;;;;;;10.10;3.83;;;16.30;99.90;;;;;;5096294;28;20463;-69
2023/06/02 09:00:57;;;;;;;3.60;2.93;;;16.50;99.90;;;;;;5096629;28;20807;-69
2023/06/02 09:03:27;;;;;;;4.20;2.43;;;16.60;99.90;;;;;;5096690;28;20457;-69
2023/06/02 09:05:55;;;;;;;3.23;2.50;;;16.80;99.90;;;;;;5096294;28;20477;-69
2023/06/02 09:08:22;;;;;;;5.80;3.10;;;17.00;99.90;;;;;;5096270;28;20957;-69
2023/06/02 09:10:49;;;;;;;7.40;3.40;;;17.20;99.90;;;;;;5096404;28;20465;-69
2023/06/02 09:13:30;;;;;;;4.23;2.10;;;17.40;99.90;;;;;;5096029;28;20460;-69
2023/06/02 09:15:58;;;;;;;4.47;2.50;;;17.50;99.90;;;;;;5096386;28;20506;-69
2023/06/02 09:18:25;;;;;;;4.23;1.87;;;17.70;99.90;;;;;;5095698;28;20453;-69
2023/06/02 09:20:52;;;;;;;3.80;2.30;;;17.80;99.90;;;;;;5095713;28;20460;-69
2023/06/02 09:23:20;;;;;;;2.63;2.30;;;18.00;99.90;;;;;;5096099;28;20453;-69
2023/06/02 09:25:47;;;;;;;1.97;1.67;;;18.20;99.90;;;;;;5095731;28;20481;-69
2023/06/02 09:28:14;;;;;;;1.80;1.40;;;18.30;1.00;;;;;;5096508;28;20780;-69
2023/06/02 09:30:41;;;;;;;4.10;1.70;;;18.30;1.00;;;;;;5096742;28;20807;-69
2023/06/02 09:33:11;;;;;;;3.03;1.60;;;18.30;1.00;;;;;;5095093;28;20463;-69
2023/06/02 09:35:41;;;;;;;3.37;1.80;;;18.30;1.00;;;;;;5095960;28;20460;-69
2023/06/02 09:38:10;;;;;;;2.97;1.50;;;18.30;1.00;;;;;;5095761;28;20508;-69
2023/06/02 09:40:38;;;;;;;5.83;1.87;;;18.40;1.00;;;;;;5095686;28;20514;-69
2023/06/02 09:43:08;;;;;;;3.33;1.30;;;18.50;1.00;;;;;;5095536;28;20453;-69
2023/06/02 09:45:59;;;;;;;2.63;1.70;;;18.60;1.00;;;;;;5095598;28;20487;-69
2023/06/02 09:48:27;;;;;;;2.53;1.33;;;18.70;1.00;;;;;;5095692;28;20442;-69
2023/06/02 09:50:55;;;;;;;2.20;1.50;;;18.70;1.00;;;;;;5095695;28;20730;-69
2023/06/02 09:53:23;;;;;;;2.77;1.50;;;18.80;1.00;;;;;;5095624;28;20844;-69
2023/06/02 09:55:51;;;;;;;3.13;1.20;;;18.90;1.00;;;;;;5095562;28;20459;-69
2023/06/02 09:58:19;;;;;;;3.37;1.37;;;18.90;1.00;;;;;;5095186;28;20464;-69
2023/06/02 10:00:46;;;;;;;3.07;1.30;;;18.90;1.00;;;;;;5095210;28;20468;-69
2023/06/02 10:03:13;;;;;;;2.37;1.13;;;18.90;1.00;;;;;;5094486;28;20453;-69
2023/06/02 10:05:52;;;;;;;5.20;1.60;;;18.90;1.00;;;;;;5094914;28;20491;-69
2023/06/02 10:08:31;;;;;;;3.00;1.70;;;19.00;1.00;;;;;;5094437;28;20568;-69
2023/06/02 10:11:09;;;;;;;2.17;1.30;;;19.10;1.00;;;;;;5095163;28;20442;-69
2023/06/02 10:14:09;;;;;;;2.50;1.23;;;19.10;1.00;;;;;;5095131;28;20437;-69
2023/06/02 10:16:47;;;;;;;2.40;1.30;;;19.10;1.00;;;;;;5095042;28;20448;-69
2023/06/02 10:19:38;;;;;;;2.40;1.40;;;19.00;1.00;;;;;;5095283;28;20437;-69
2023/06/02 10:22:28;;;;;;;2.50;1.27;;;19.00;1.00;;;;;;5094517;28;20529;-69
2023/06/02 10:25:06;;;;;;;2.40;1.20;;;19.10;1.00;;;;;;5086705;28;20801;-69
2023/06/02 10:27:37;;;;;;;2.10;1.50;;;19.10;1.00;;;;;;5094701;28;20226;-69
2023/06/02 10:30:04;;;;;;;3.00;1.40;;;19.20;1.00;;;;;;5094823;28;20445;-69
2023/06/02 10:32:44;;;;;;;4.33;1.47;;;19.30;1.00;;;;;;5094900;28;20456;-69
2023/06/02 10:35:11;;;;;;;2.93;1.57;;;19.40;1.00;;;;;;5094478;28;20445;-69
2023/06/02 10:37:39;;;;;;;1.70;1.20;;;19.40;1.00;;;;;;5094360;28;20790;-69
2023/06/02 10:40:10;;;;;;;5.23;1.63;;;19.40;1.00;;;;;;5094400;28;20998;-69
2023/06/02 10:42:39;;;;;;;3.13;1.50;;;19.50;1.00;;;;;;5094427;28;20504;-69
2023/06/02 10:45:37;;;;;;;1.90;1.20;;;19.70;1.00;;;;;;5093756;28;20460;-69
2023/06/02 10:48:35;;;;;;;3.60;1.50;;;19.80;1.00;;;;;;5094122;28;20465;-69
2023/06/02 10:51:01;;;;;;;6.17;1.77;;;19.90;1.00;;;;;;5094425;28;20441;-69
2023/06/02 10:53:28;;;;;;;5.37;1.90;;;20.00;1.00;;;;;;5094573;28;20457;-69
2023/06/02 10:55:55;;;;;;;4.60;1.63;;;20.00;1.00;;;;;;5094311;28;20541;-69
2023/06/02 10:58:51;;;;;;;2.90;1.30;;;20.10;1.00;;;;;;5094038;28;20950;-69
2023/06/02 11:01:46;;;;;;;2.63;1.50;;;20.10;1.00;;;;;;5094119;28;20452;-70
2023/06/02 11:04:32;;;;;;;2.90;1.40;;;20.10;1.00;;;;;;5094546;28;20456;-69
2023/06/02 11:07:18;;;;;;;1.80;1.30;;;20.00;1.00;;;;;;5094294;28;20546;-68
2023/06/02 11:09:45;;;;;;;2.63;1.20;;;20.10;1.00;;;;;;5094605;28;20870;-68
2023/06/02 11:12:13;;;;;;;2.33;1.40;;;20.10;1.00;;;;;;5094087;28;20549;-68
2023/06/02 11:15:15;;;;;;;2.20;1.30;;;20.20;1.00;;;;;;5094113;28;20939;-69
2023/06/02 11:17:42;;;;;;;3.30;1.60;;;20.30;1.00;;;;;;5094504;28;20467;-70
2023/06/02 11:20:10;;;;;;;3.03;1.50;;;20.80;1.00;;;;;;5094288;28;20534;-70
2023/06/02 11:22:37;;;;;;;7.90;3.10;;;21.40;1.00;;;;;;5094032;28;20969;-69
2023/06/02 11:25:05;;;;;;;3.00;1.40;;;21.80;1.00;;;;;;5094328;28;20464;-68
2023/06/02 11:27:37;;;;;;;3.43;1.47;;;22.00;1.00;;;;;;5093987;28;20564;-69
2023/06/02 11:30:14;;;;;;;2.63;1.47;;;22.00;1.00;;;;;;5093980;28;20522;-69
2023/06/02 11:32:42;;;;;;;4.70;1.50;;;21.90;1.00;;;;;;5093814;28;20449;-70
2023/06/02 11:35:10;;;;;;;2.73;1.50;;;22.50;1.00;;;;;;5093893;28;20459;-69
2023/06/02 11:37:40;;;;;;;1.77;1.23;;;23.00;1.00;;;;;;5093820;28;20487;-69
2023/06/02 11:40:10;;;;;;;4.20;1.50;;;23.40;1.00;;;;;;5094187;28;20889;-69
2023/06/02 11:42:38;;;;;;;2.50;1.10;;;23.70;1.00;;;;;;5094104;28;20819;-69
2023/06/02 11:45:07;;;;;;;2.27;1.60;;;23.50;1.00;;;;;;5093600;28;20459;-69
2023/06/02 11:47:34;;;;;;;3.43;1.20;;;23.70;1.00;;;;;;5094151;28;20550;-69
2023/06/02 11:50:02;;;;;;;3.33;1.50;;;24.40;1.00;;;;;;5094341;28;20454;-69
2023/06/02 11:52:37;;;;;;;3.77;1.40;;;25.00;1.00;;;;;;5094140;28;20449;-70
2023/06/02 11:55:04;;;;;;;4.07;1.07;;;25.60;1.00;;;;;;5094337;28;20552;-69
2023/06/02 11:57:32;;;;;;;1.60;1.13;;;26.30;1.00;;;;;;5097401;28;20534;-69
2023/06/02 12:00:10;;;;;;;5.03;1.00;;;26.90;1.00;;;;;;5097742;28;20468;-69
2023/06/02 12:02:39;;;;;;;2.30;1.13;;;27.30;1.00;;;;;;5097683;28;20437;-69
2023/06/02 12:05:27;;;;;;;3.13;1.00;;;27.90;1.00;;;;;;5097854;28;20518;-69
2023/06/02 12:07:54;;;;;;;2.10;1.30;;;28.10;1.00;;;;;;5097786;28;20508;-69
2023/06/02 12:10:21;;;;;;;3.43;1.10;;;28.20;1.00;;;;;;5097999;28;20470;-69
2023/06/02 12:12:48;;;;;;;3.93;1.30;;;28.40;1.00;;;;;;5097746;28;20782;-69
2023/06/02 12:15:17;;;;;;;5.87;1.20;;;28.60;1.00;;;;;;5097889;28;20468;-69
2023/06/02 12:17:45;;;;;;;1.57;1.40;;;29.00;1.00;;;;;;5097373;28;20901;-69
2023/06/02 12:20:13;;;;;;;1.63;1.23;;;29.10;1.00;;;;;;5097441;28;20449;-68
2023/06/02 12:22:53;;;;;;;3.80;1.27;;;29.30;1.00;;;;;;5097431;28;20460;-70
2023/06/02 12:25:21;;;;;;;1.63;1.10;;;29.50;1.00;;;;;;5097267;28;20460;-70
2023/06/02 12:27:48;;;;;;;5.20;1.10;;;29.60;1.00;;;;;;5097206;28;20592;-70
2023/06/02 12:30:16;;;;;;;2.43;1.10;;;29.60;1.00;;;;;;5097093;28;20453;-68
2023/06/02 12:32:43;;;;;;;6.30;1.60;;;29.80;1.00;;;;;;5097208;28;20457;-69
2023/06/02 12:35:10;;;;;;;1.97;1.00;;;29.90;1.00;;;;;;5097142;28;20453;-69
2023/06/02 12:37:42;;;;;;;2.33;0.97;;;29.70;1.00;;;;;;5096611;28;20961;-69
2023/06/02 12:40:10;;;;;;;4.90;1.33;;;29.50;1.00;;;;;;5096912;28;20434;-69
2023/06/02 12:42:37;;;;;;;1.77;1.10;;;29.40;1.00;;;;;;5096584;28;20457;-69
2023/06/02 12:45:05;;;;;;;4.43;1.10;;;29.50;1.00;;;;;;5096939;28;20457;-68
2023/06/02 12:47:33;;;;;;;3.30;1.40;;;29.40;1.00;;;;;;5096774;28;20489;-68
2023/06/02 12:50:00;;;;;;;3.53;1.60;;;29.20;1.00;;;;;;5097191;28;20464;-69
2023/06/02 12:52:27;;;;;;;4.93;1.20;;;29.30;1.00;;;;;;5096799;28;20548;-69
2023/06/02 12:54:55;;;;;;;6.50;1.10;;;29.30;1.00;;;;;;5096391;28;20459;-69